createdAt,value
2018-05-08T00:02:26.791Z,4.20
2018-05-08T00:04:54.237Z,3.30
2018-05-08T00:07:21.666Z,2.97
2018-05-08T00:09:49.130Z,3.00
2018-05-08T00:12:16.597Z,3.03
2018-05-08T00:14:44.061Z,3.50
2018-05-08T00:17:11.507Z,3.80
2018-05-08T00:19:38.968Z,3.40
2018-05-08T00:22:06.434Z,3.07
2018-05-08T00:24:33.913Z,3.10
2018-05-08T00:27:01.447Z,3.07
2018-05-08T00:29:28.876Z,3.27
2018-05-08T00:31:56.355Z,2.93
2018-05-08T00:34:23.792Z,3.20
2018-05-08T00:36:51.234Z,3.00
2018-05-08T00:39:18.811Z,3.27
2018-05-08T00:41:46.266Z,3.10
2018-05-08T00:44:13.747Z,2.83
2018-05-08T00:46:41.202Z,3.40
2018-05-08T00:49:08.672Z,3.30
2018-05-08T00:51:36.122Z,3.17
2018-05-08T00:54:03.567Z,2.83
2018-05-08T00:56:30.995Z,3.13
2018-05-08T00:58:58.493Z,3.10
2018-05-08T01:01:25.946Z,3.03
2018-05-08T01:03:53.392Z,3.27
2018-05-08T01:06:20.878Z,2.87
2018-05-08T01:08:48.323Z,3.40
2018-05-08T01:11:15.771Z,3.17
2018-05-08T01:13:43.202Z,3.60
2018-05-08T01:16:10.677Z,3.50
2018-05-08T01:18:38.105Z,3.07
2018-05-08T01:21:05.603Z,3.07
2018-05-08T01:23:33.137Z,3.33
2018-05-08T01:26:00.636Z,3.17
2018-05-08T01:28:28.064Z,3.47
2018-05-08T01:30:55.556Z,3.10
2018-05-08T01:33:22.981Z,3.40
2018-05-08T01:35:50.430Z,2.70
2018-05-08T01:38:17.921Z,3.37
2018-05-08T01:40:45.341Z,3.00
2018-05-08T01:43:12.800Z,3.10
2018-05-08T01:45:40.226Z,3.13
2018-05-08T01:48:07.737Z,3.50
2018-05-08T01:50:35.175Z,3.10
2018-05-08T01:53:02.611Z,3.70
2018-05-08T01:55:30.065Z,3.20
2018-05-08T01:57:57.490Z,3.10
2018-05-08T02:00:24.934Z,3.03
2018-05-08T02:02:52.350Z,3.30
2018-05-08T02:05:19.829Z,3.20
2018-05-08T02:07:47.257Z,3.37
2018-05-08T02:10:14.816Z,2.90
2018-05-08T02:12:42.281Z,3.90
2018-05-08T02:15:09.717Z,3.40
2018-05-08T02:17:37.153Z,3.30
2018-05-08T02:20:04.579Z,3.60
2018-05-08T02:22:32.065Z,3.43
2018-05-08T02:24:59.498Z,3.23
2018-05-08T02:27:26.934Z,3.13
2018-05-08T02:29:54.411Z,3.27
2018-05-08T02:32:21.862Z,3.37
2018-05-08T02:34:49.414Z,3.13
2018-05-08T02:37:16.986Z,3.30
2018-05-08T02:39:44.433Z,3.27
2018-05-08T02:42:12.380Z,2.80
2018-05-08T02:44:39.813Z,3.00
2018-05-08T02:47:07.322Z,2.83
2018-05-08T02:49:34.761Z,3.10
2018-05-08T02:52:02.190Z,3.00
2018-05-08T02:54:29.704Z,2.90
2018-05-08T02:56:57.131Z,2.63
2018-05-08T02:59:24.556Z,2.57
2018-05-08T03:01:52.074Z,2.73
2018-05-08T03:04:19.528Z,2.30
2018-05-08T03:06:46.971Z,3.00
2018-05-08T03:09:14.413Z,2.63
2018-05-08T03:11:41.853Z,2.70
2018-05-08T03:14:09.277Z,2.90
2018-05-08T03:16:36.771Z,3.37
2018-05-08T03:19:04.201Z,2.90
2018-05-08T03:21:31.625Z,2.80
2018-05-08T03:23:59.062Z,2.50
2018-05-08T03:26:26.621Z,2.80
2018-05-08T03:28:54.055Z,3.10
2018-05-08T03:31:21.524Z,2.90
2018-05-08T03:33:49.002Z,2.90
2018-05-08T03:36:16.434Z,2.70
2018-05-08T03:38:43.912Z,2.80
2018-05-08T03:41:11.344Z,3.00
2018-05-08T03:43:38.798Z,2.83
2018-05-08T03:46:06.293Z,2.67
2018-05-08T03:48:33.724Z,2.30
2018-05-08T03:51:01.257Z,2.53
2018-05-08T03:53:28.681Z,5.27
2018-05-08T03:55:56.119Z,4.40
2018-05-08T03:58:23.641Z,3.90
2018-05-08T04:01:02.809Z,2.90
2018-05-08T04:03:43.060Z,3.70
2018-05-08T04:09:15.365Z,2.60
2018-05-08T04:11:42.802Z,3.00
2018-05-08T04:14:10.245Z,2.37
2018-05-08T04:16:37.723Z,2.90
2018-05-08T04:19:05.170Z,3.20
2018-05-08T04:21:32.720Z,3.00
2018-05-08T04:24:00.197Z,2.93
2018-05-08T04:26:27.621Z,2.87
2018-05-08T04:28:55.053Z,3.13
2018-05-08T04:31:22.572Z,2.83
2018-05-08T04:33:50.029Z,2.60
2018-05-08T04:36:17.502Z,2.40
2018-05-08T04:38:45.381Z,2.63
2018-05-08T04:41:12.818Z,2.80
2018-05-08T04:43:40.261Z,2.90
2018-05-08T04:46:07.707Z,2.53
2018-05-08T04:48:35.174Z,3.20
2018-05-08T04:51:02.650Z,3.13
2018-05-08T04:53:30.135Z,3.37
2018-05-08T04:55:57.628Z,2.70
2018-05-08T04:58:25.037Z,3.03
2018-05-08T05:00:52.486Z,2.67
2018-05-08T05:03:19.971Z,2.80
2018-05-08T05:05:47.487Z,2.93
2018-05-08T05:08:14.946Z,5.00
2018-05-08T05:10:42.626Z,4.93
2018-05-08T05:13:10.064Z,4.43
2018-05-08T05:15:37.629Z,4.27
2018-05-08T05:18:05.161Z,5.20
2018-05-08T05:20:32.616Z,4.80
2018-05-08T05:23:00.062Z,5.03
2018-05-08T05:25:27.539Z,4.93
2018-05-08T05:27:54.991Z,5.63
2018-05-08T05:30:22.426Z,5.20
2018-05-08T05:32:49.933Z,4.60
2018-05-08T05:35:17.369Z,4.67
2018-05-08T05:37:44.833Z,5.30
2018-05-08T05:40:12.278Z,4.90
2018-05-08T05:42:39.746Z,5.60
2018-05-08T05:45:07.176Z,5.20
2018-05-08T05:47:34.672Z,5.50
2018-05-08T05:50:02.111Z,4.77
2018-05-08T05:52:29.561Z,5.23
2018-05-08T05:54:56.999Z,4.87
2018-05-08T05:57:24.500Z,4.63
2018-05-08T05:59:51.938Z,4.67
2018-05-08T06:02:19.536Z,4.60
2018-05-08T06:04:46.998Z,4.40
2018-05-08T06:07:14.444Z,5.30
2018-05-08T06:09:42.022Z,4.80
2018-05-08T06:12:09.454Z,4.33
2018-05-08T06:14:36.906Z,5.20
2018-05-08T06:17:04.363Z,3.97
2018-05-08T06:19:31.912Z,6.63
2018-05-08T06:21:59.361Z,6.20
2018-05-08T06:24:26.825Z,4.57
2018-05-08T06:26:54.270Z,15.43
2018-05-08T06:29:21.738Z,11.23
2018-05-08T06:31:49.199Z,4.63
2018-05-08T06:34:16.670Z,3.90
2018-05-08T06:36:44.223Z,3.40
2018-05-08T06:39:11.667Z,3.57
2018-05-08T06:41:39.102Z,3.63
2018-05-08T06:44:06.569Z,4.50
2018-05-08T06:46:34.064Z,6.30
2018-05-08T06:49:01.517Z,4.37
2018-05-08T06:51:28.952Z,4.10
2018-05-08T06:53:56.396Z,4.33
2018-05-08T06:56:23.886Z,3.57
2018-05-08T06:58:51.461Z,3.60
2018-05-08T07:01:18.897Z,3.47
2018-05-08T07:03:46.317Z,6.40
2018-05-08T07:06:13.750Z,3.40
2018-05-08T07:08:41.192Z,3.50
2018-05-08T07:11:08.628Z,3.30
2018-05-08T07:13:36.074Z,3.20
2018-05-08T07:16:03.627Z,2.87
2018-05-08T07:18:30.941Z,2.60
2018-05-08T07:20:58.373Z,2.77
2018-05-08T07:23:25.896Z,2.53
2018-05-08T07:25:53.329Z,2.87
2018-05-08T07:28:20.922Z,2.50
2018-05-08T07:30:48.417Z,2.40
2018-05-08T07:33:15.849Z,2.23
2018-05-08T07:35:43.332Z,2.30
2018-05-08T07:38:10.796Z,2.77
2018-05-08T07:40:38.213Z,2.53
2018-05-08T07:43:06.540Z,2.60
2018-05-08T07:45:34.024Z,2.33
2018-05-08T07:48:01.417Z,2.23
2018-05-08T07:50:28.875Z,2.33
2018-05-08T07:52:56.306Z,2.03
2018-05-08T07:55:23.779Z,2.47
2018-05-08T07:57:51.227Z,2.60
2018-05-08T08:00:18.655Z,2.80
2018-05-08T08:02:46.144Z,2.53
2018-05-08T08:05:13.659Z,2.43
2018-05-08T08:07:41.088Z,2.30
2018-05-08T08:10:08.526Z,2.30
2018-05-08T08:12:35.986Z,1.90
2018-05-08T08:15:03.418Z,2.37
2018-05-08T08:17:30.862Z,2.53
2018-05-08T08:19:58.303Z,2.30
2018-05-08T08:22:25.756Z,2.23
2018-05-08T08:24:53.224Z,2.07
2018-05-08T08:27:20.700Z,2.33
2018-05-08T08:29:48.199Z,1.80
2018-05-08T08:32:15.649Z,2.10
2018-05-08T08:34:43.103Z,1.60
2018-05-08T08:37:10.663Z,1.70
2018-05-08T08:39:38.162Z,2.40
2018-05-08T08:42:05.599Z,2.10
2018-05-08T08:44:33.054Z,2.10
2018-05-08T08:47:00.514Z,2.23
2018-05-08T08:49:27.999Z,1.87
2018-05-08T08:51:55.424Z,1.90
2018-05-08T08:54:22.882Z,2.00
2018-05-08T08:56:50.346Z,2.00
2018-05-08T08:59:17.846Z,2.30
2018-05-08T09:01:45.261Z,4.17
2018-05-08T09:04:12.695Z,2.23
2018-05-08T09:06:40.132Z,2.47
2018-05-08T09:09:07.593Z,2.27
2018-05-08T09:11:35.019Z,2.50
2018-05-08T09:14:02.487Z,2.10
2018-05-08T09:16:29.950Z,2.20
2018-05-08T09:18:57.412Z,1.67
2018-05-08T09:21:24.839Z,1.50
2018-05-08T09:23:52.287Z,1.87
2018-05-08T09:26:19.737Z,1.87
2018-05-08T09:28:47.245Z,1.70
2018-05-08T09:31:14.676Z,1.90
2018-05-08T09:33:42.115Z,2.10
2018-05-08T09:36:09.621Z,1.80
2018-05-08T09:38:37.092Z,1.97
2018-05-08T09:41:04.590Z,1.50
2018-05-08T09:43:32.077Z,1.70
2018-05-08T09:45:59.524Z,1.80
2018-05-08T09:48:26.984Z,2.00
2018-05-08T09:50:54.544Z,1.80
2018-05-08T09:53:21.997Z,1.70
2018-05-08T09:55:49.482Z,1.77
2018-05-08T09:58:16.913Z,1.60
2018-05-08T10:00:44.429Z,1.90
2018-05-08T10:03:11.950Z,2.00
2018-05-08T10:05:39.496Z,1.80
2018-05-08T10:08:06.927Z,1.77
2018-05-08T10:10:34.366Z,1.70
2018-05-08T10:13:01.799Z,1.47
2018-05-08T10:15:29.230Z,1.80
2018-05-08T10:17:56.691Z,1.60
2018-05-08T10:20:24.177Z,1.70
2018-05-08T10:22:51.605Z,1.80
2018-05-08T10:25:19.070Z,1.80
2018-05-08T10:27:46.505Z,1.47
2018-05-08T10:30:13.949Z,1.43
2018-05-08T10:32:41.502Z,1.70
2018-05-08T10:35:09.089Z,1.57
2018-05-08T10:37:36.624Z,1.60
2018-05-08T10:40:04.057Z,1.40
2018-05-08T10:42:31.492Z,1.30
2018-05-08T10:44:58.945Z,1.50
2018-05-08T10:47:26.390Z,1.70
2018-05-08T10:49:53.814Z,1.60
2018-05-08T10:52:21.317Z,1.43
2018-05-08T10:54:48.858Z,1.60
2018-05-08T10:57:16.310Z,1.40
2018-05-08T10:59:43.741Z,1.63
2018-05-08T11:02:11.225Z,1.40
2018-05-08T11:04:38.656Z,1.30
2018-05-08T11:07:06.292Z,1.40
2018-05-08T11:09:33.741Z,1.42
2018-05-08T11:12:01.228Z,1.50
2018-05-08T11:14:28.720Z,1.20
2018-05-08T11:16:56.234Z,1.62
2018-05-08T11:19:23.729Z,1.37
2018-05-08T11:21:51.212Z,1.60
2018-05-08T11:24:18.737Z,1.55
2018-05-08T11:26:46.516Z,1.37
2018-05-08T11:29:14.314Z,1.87
2018-05-08T11:31:41.807Z,1.45
2018-05-08T11:34:09.297Z,1.37
2018-05-08T11:36:36.762Z,1.65
2018-05-08T11:39:04.221Z,1.10
2018-05-08T11:41:31.719Z,1.23
2018-05-08T11:43:59.146Z,1.20
2018-05-08T11:46:26.577Z,1.87
2018-05-08T11:48:54.035Z,2.28
2018-05-08T11:51:21.580Z,1.37
2018-05-08T11:53:49.048Z,1.50
2018-05-08T11:56:16.483Z,1.80
2018-05-08T11:58:43.968Z,1.30
2018-05-08T12:01:11.426Z,1.20
2018-05-08T12:03:38.889Z,1.50
2018-05-08T12:06:06.350Z,1.60
2018-05-08T12:08:33.785Z,1.40
2018-05-08T12:11:01.253Z,1.20
2018-05-08T12:13:28.701Z,1.50
2018-05-08T12:15:56.162Z,1.40
2018-05-08T12:18:23.805Z,1.48
2018-05-08T12:20:51.238Z,1.50
2018-05-08T12:23:18.738Z,1.20
2018-05-08T12:25:46.291Z,1.85
2018-05-08T12:28:13.713Z,4.43
2018-05-08T12:30:41.168Z,1.83
2018-05-08T12:33:08.618Z,1.35
2018-05-08T12:35:36.042Z,1.27
2018-05-08T12:38:03.461Z,1.45
2018-05-08T12:40:31.066Z,1.48
2018-05-08T12:42:58.482Z,2.35
2018-05-08T12:45:25.979Z,1.77
2018-05-08T12:47:53.429Z,1.50
2018-05-08T12:50:20.881Z,1.65
2018-05-08T12:52:48.399Z,1.25
2018-05-08T12:55:15.980Z,1.40
2018-05-08T12:57:43.601Z,1.50
2018-05-08T13:00:11.117Z,1.48
2018-05-08T13:02:38.635Z,1.48
2018-05-08T13:05:06.059Z,1.70
2018-05-08T13:07:33.719Z,1.30
2018-05-08T13:10:01.438Z,1.50
2018-05-08T13:12:28.875Z,1.20
2018-05-08T13:14:56.391Z,1.25
2018-05-08T13:17:23.936Z,1.10
2018-05-08T13:19:51.371Z,1.50
2018-05-08T13:22:18.902Z,1.45
2018-05-08T13:24:46.334Z,1.50
2018-05-08T13:27:13.854Z,1.50
2018-05-08T13:29:41.269Z,1.40
2018-05-08T13:32:08.719Z,1.50
2018-05-08T13:34:36.227Z,1.30
2018-05-08T13:37:03.658Z,1.40
2018-05-08T13:39:31.113Z,1.58
2018-05-08T13:41:58.689Z,1.20
2018-05-08T13:44:26.158Z,1.35
2018-05-08T13:46:53.598Z,1.60
2018-05-08T13:49:21.057Z,1.50
2018-05-08T13:51:48.479Z,1.37
2018-05-08T13:54:15.986Z,1.20
2018-05-08T13:56:43.417Z,1.30
2018-05-08T13:59:10.849Z,1.27
2018-05-08T14:01:38.371Z,1.33
2018-05-08T14:04:05.814Z,1.45
2018-05-08T14:06:35.390Z,1.50
2018-05-08T14:09:02.749Z,1.30
2018-05-08T14:11:30.230Z,1.25
2018-05-08T14:13:57.653Z,1.48
2018-05-08T14:16:25.089Z,1.23
2018-05-08T14:18:52.526Z,1.48
2018-05-08T14:21:19.956Z,1.33
2018-05-08T14:23:47.426Z,1.23
2018-05-08T14:26:14.994Z,1.37
2018-05-08T14:28:42.306Z,1.10
2018-05-08T14:31:09.734Z,1.30
2018-05-08T14:33:37.209Z,1.67
2018-05-08T14:36:04.638Z,1.55
2018-05-08T14:38:32.164Z,1.50
2018-05-08T14:40:59.530Z,1.70
2018-05-08T14:43:26.968Z,1.48
2018-05-08T14:45:54.407Z,1.52
2018-05-08T14:48:22.000Z,1.20
2018-05-08T14:50:49.446Z,1.58
2018-05-08T14:53:16.898Z,1.67
2018-05-08T14:55:44.334Z,1.35
2018-05-08T14:58:11.822Z,1.35
2018-05-08T15:00:39.244Z,1.35
2018-05-08T15:03:06.686Z,1.30
2018-05-08T15:05:34.181Z,1.65
2018-05-08T15:08:01.617Z,1.33
2018-05-08T15:10:29.070Z,1.70
2018-05-08T15:12:56.681Z,1.87
2018-05-08T15:15:24.198Z,1.48
2018-05-08T15:17:51.649Z,1.23
2018-05-08T15:20:19.139Z,1.40
2018-05-08T15:22:46.601Z,1.05
2018-05-08T15:25:14.237Z,1.50
2018-05-08T15:27:41.667Z,1.52
2018-05-08T15:30:09.157Z,1.50
2018-05-08T15:32:36.722Z,1.42
2018-05-08T15:35:04.158Z,1.50
2018-05-08T15:37:31.592Z,1.42
2018-05-08T15:39:59.012Z,1.50
2018-05-08T15:42:26.446Z,1.70
2018-05-08T15:44:53.905Z,1.40
2018-05-08T15:47:21.382Z,1.37
2018-05-08T15:49:49.674Z,1.83
2018-05-08T15:52:17.169Z,1.60
2018-05-08T15:54:44.638Z,1.80
2018-05-08T15:57:12.093Z,2.20
2018-05-08T15:59:39.527Z,1.40
2018-05-08T16:02:07.104Z,1.40
2018-05-08T16:04:34.570Z,1.58
2018-05-08T16:07:02.049Z,1.45
2018-05-08T16:09:29.472Z,1.48
2018-05-08T16:11:56.892Z,1.37
2018-05-08T16:14:24.342Z,1.80
2018-05-08T16:16:51.905Z,1.65
2018-05-08T16:19:19.335Z,1.45
2018-05-08T16:21:46.831Z,1.70
2018-05-08T16:24:14.281Z,1.60
2018-05-08T16:26:41.721Z,1.60
2018-05-08T16:29:09.182Z,1.70
2018-05-08T16:31:36.644Z,1.80
2018-05-08T16:34:04.105Z,1.15
2018-05-08T16:36:31.521Z,1.85
2018-05-08T16:38:58.945Z,1.48
2018-05-08T16:41:26.450Z,1.65
2018-05-08T16:43:53.914Z,1.67
2018-05-08T16:46:21.376Z,1.73
2018-05-08T16:48:48.815Z,1.90
2018-05-08T16:51:16.306Z,1.40
2018-05-08T16:53:43.736Z,1.58
2018-05-08T16:56:11.819Z,1.85
2018-05-08T16:58:39.246Z,1.77
2018-05-08T17:01:06.683Z,3.00
2018-05-08T17:03:34.103Z,2.20
2018-05-08T17:06:01.567Z,1.87
2018-05-08T17:08:28.995Z,1.92
2018-05-08T17:10:56.443Z,1.80
2018-05-08T17:13:24.007Z,2.40
2018-05-08T17:15:51.426Z,1.50
2018-05-08T17:18:21.148Z,2.05
2018-05-08T17:20:48.955Z,2.35
2018-05-08T17:23:16.386Z,1.42
2018-05-08T17:25:43.826Z,1.70
2018-05-08T17:28:11.269Z,1.65
2018-05-08T17:30:38.733Z,1.45
2018-05-08T17:33:06.172Z,1.33
2018-05-08T17:35:33.597Z,1.60
2018-05-08T17:38:01.062Z,3.08
2018-05-08T17:40:28.502Z,4.03
2018-05-08T17:42:55.957Z,2.47
2018-05-08T17:45:23.402Z,2.22
2018-05-08T17:47:50.861Z,3.95
2018-05-08T17:50:18.331Z,3.47
2018-05-08T17:52:45.768Z,2.25
2018-05-08T17:55:13.210Z,2.37
2018-05-08T17:57:40.654Z,3.67
2018-05-08T18:00:08.134Z,3.37
2018-05-08T18:02:35.573Z,2.20
2018-05-08T18:05:03.062Z,3.25
2018-05-08T18:07:30.508Z,3.45
2018-05-08T18:09:57.999Z,2.50
2018-05-08T18:12:25.538Z,2.63
2018-05-08T18:14:53.162Z,3.53
2018-05-08T18:17:20.630Z,2.53
2018-05-08T18:19:48.075Z,3.07
2018-05-08T18:22:15.563Z,2.80
2018-05-08T18:24:43.002Z,2.87
2018-05-08T18:27:10.434Z,3.03
2018-05-08T18:29:37.913Z,2.77
2018-05-08T18:32:05.498Z,2.63
2018-05-08T18:34:32.933Z,3.03
2018-05-08T18:37:00.622Z,2.70
2018-05-08T18:39:28.088Z,2.67
2018-05-08T18:41:55.701Z,1.97
2018-05-08T18:44:23.161Z,2.03
2018-05-08T18:46:50.649Z,2.70
2018-05-08T18:49:18.388Z,2.87
2018-05-08T18:51:45.818Z,1.90
2018-05-08T18:54:13.251Z,2.47
2018-05-08T18:56:40.687Z,2.13
2018-05-08T18:59:08.121Z,1.90
2018-05-08T19:01:35.596Z,2.30
2018-05-08T19:04:03.070Z,2.57
2018-05-08T19:06:30.526Z,2.00
2018-05-08T19:08:58.659Z,1.60
2018-05-08T19:11:31.734Z,1.93
2018-05-08T19:13:59.173Z,2.10
2018-05-08T19:16:26.618Z,2.00
2018-05-08T19:18:59.541Z,2.20
2018-05-08T19:21:26.979Z,2.00
2018-05-08T19:24:00.212Z,2.23
2018-05-08T19:26:27.800Z,2.77
2018-05-08T19:29:00.840Z,2.77
2018-05-08T19:31:28.256Z,1.80
2018-05-08T19:33:55.686Z,2.13
2018-05-08T19:36:28.892Z,2.20
2018-05-08T19:38:56.504Z,1.93
2018-05-08T19:41:24.007Z,2.47
2018-05-08T19:43:51.560Z,2.43
2018-05-08T19:46:19.017Z,2.07
2018-05-08T19:48:46.469Z,1.83
2018-05-08T19:51:14.034Z,2.10
2018-05-08T19:53:41.709Z,2.27
2018-05-08T19:56:09.202Z,1.90
2018-05-08T19:58:36.775Z,2.23
2018-05-08T20:01:04.238Z,2.00
2018-05-08T20:03:31.681Z,2.13
2018-05-08T20:05:59.117Z,2.00
2018-05-08T20:08:26.649Z,2.20
2018-05-08T20:10:54.131Z,1.90
2018-05-08T20:13:21.553Z,2.10
2018-05-08T20:15:48.994Z,2.00
2018-05-08T20:18:16.426Z,2.00
2018-05-08T20:20:43.853Z,2.33
2018-05-08T20:23:11.277Z,2.10
2018-05-08T20:25:38.750Z,2.50
2018-05-08T20:28:06.194Z,2.10
2018-05-08T20:30:33.712Z,2.67
2018-05-08T20:33:01.108Z,2.90
2018-05-08T20:35:28.551Z,2.53
2018-05-08T20:37:56.005Z,2.40
2018-05-08T20:40:23.440Z,2.57
2018-05-08T20:42:50.928Z,2.40
2018-05-08T20:45:18.410Z,1.97
2018-05-08T20:47:45.862Z,2.10
2018-05-08T20:50:13.306Z,2.00
2018-05-08T20:52:40.736Z,2.10
2018-05-08T20:55:08.191Z,2.47
2018-05-08T20:57:35.635Z,2.10
2018-05-08T21:00:03.144Z,2.33
2018-05-08T21:02:30.615Z,2.17
2018-05-08T21:04:58.122Z,2.70
2018-05-08T21:07:25.624Z,2.47
2018-05-08T21:09:53.158Z,2.30
2018-05-08T21:12:20.776Z,2.33
2018-05-08T21:14:48.230Z,2.50
2018-05-08T21:17:16.028Z,2.40
2018-05-08T21:19:43.469Z,2.80
2018-05-08T21:22:10.924Z,2.60
2018-05-08T21:24:38.456Z,2.40
2018-05-08T21:27:05.923Z,2.47
2018-05-08T21:29:38.997Z,2.23
2018-05-08T21:32:06.554Z,1.80
2018-05-08T21:34:33.991Z,2.50
2018-05-08T21:37:01.466Z,2.40
2018-05-08T21:39:28.934Z,2.70
2018-05-08T21:41:56.484Z,2.60
2018-05-08T21:44:23.944Z,2.10
2018-05-08T21:46:51.395Z,2.00
2018-05-08T21:49:18.832Z,2.30
2018-05-08T21:51:46.390Z,2.33
2018-05-08T21:54:13.832Z,3.03
2018-05-08T21:56:41.273Z,3.03
2018-05-08T21:59:08.725Z,2.47
2018-05-08T22:01:36.212Z,2.40
2018-05-08T22:04:03.758Z,2.63
2018-05-08T22:06:31.134Z,2.87
2018-05-08T22:08:58.958Z,3.50
2018-05-08T22:11:26.419Z,2.97
2018-05-08T22:13:54.149Z,3.33
2018-05-08T22:16:21.679Z,3.20
2018-05-08T22:18:49.128Z,3.10
2018-05-08T22:21:16.554Z,3.10
2018-05-08T22:23:43.985Z,3.00
2018-05-08T22:26:11.472Z,2.97
2018-05-08T22:28:38.924Z,2.67
2018-05-08T22:31:06.427Z,3.00
2018-05-08T22:33:33.886Z,2.80
2018-05-08T22:36:01.321Z,2.97
2018-05-08T22:38:28.770Z,2.80
2018-05-08T22:40:56.202Z,3.00
2018-05-08T22:43:23.693Z,3.40
2018-05-08T22:45:51.132Z,3.20
2018-05-08T22:48:18.571Z,3.00
2018-05-08T22:50:46.068Z,3.20
2018-05-08T22:53:13.526Z,2.90
2018-05-08T22:55:40.949Z,3.13
2018-05-08T22:58:08.386Z,2.87
2018-05-08T23:00:35.821Z,3.23
2018-05-08T23:03:03.249Z,2.90
2018-05-08T23:05:30.925Z,3.30
2018-05-08T23:07:58.397Z,3.40
2018-05-08T23:10:26.000Z,3.40
2018-05-08T23:12:53.431Z,3.23
2018-05-08T23:15:20.970Z,3.67
2018-05-08T23:17:48.406Z,3.43
2018-05-08T23:20:15.850Z,3.30
2018-05-08T23:22:43.287Z,2.80
2018-05-08T23:25:10.791Z,2.90
2018-05-08T23:27:38.239Z,2.90
2018-05-08T23:30:05.682Z,3.00
2018-05-08T23:32:33.113Z,3.07
2018-05-08T23:35:00.547Z,3.17
2018-05-08T23:37:27.979Z,3.13
2018-05-08T23:39:55.407Z,2.93
2018-05-08T23:42:22.861Z,3.07
2018-05-08T23:44:50.276Z,3.10
2018-05-08T23:47:17.758Z,3.40
2018-05-08T23:49:45.199Z,2.77
2018-05-08T23:52:12.640Z,3.17
2018-05-08T23:54:40.057Z,2.73
2018-05-08T23:57:07.522Z,3.20
2018-05-08T23:59:35.048Z,2.80
